Mineola, Missouri
Current Conditions -  °F | °C
As of 10:15 PM on Friday 19 Dec 2014 (Local Time) from KFYG Reporting Station
Overcast Overcast  
Wind Chill: 36°   Ceiling: 2100
Heat Index: 36°   Visibility: 7mi
Dew Point: 32°   Wind: 3mph
Humidity: 87%   Direction: 130°SE
Pressure: 30.25"   Gusts: NA
Location:  39.0022°N, 91.5066°W
Report Text: KFYG 200415Z AUTO 13003KT 7SM BKN021 BKN027 OVC055 02/00 A3025 RMK AO2
Loading
Personal Weather Stations






























Interactive Weather Map New forecast layout! Learn more

10-Day Weather Forecast

Advertisements
Track Severe Weather on mobile